sensor_id;sensor_type;location;lat;lon;timestamp;temperature;humidity
6581;DHT22;3324;50.796;7.228;2024-02-26T00:01:23;8.40;99.90
6581;DHT22;3324;50.796;7.228;2024-02-26T00:03:48;8.50;99.90
6581;DHT22;3324;50.796;7.228;2024-02-26T00:06:14;8.40;99.90
6581;DHT22;3324;50.796;7.228;2024-02-26T00:08:39;8.40;99.90
6581;DHT22;3324;50.796;7.228;2024-02-26T00:11:05;8.40;99.90
6581;DHT22;3324;50.796;7.228;2024-02-26T00:13:30;8.30;99.90
6581;DHT22;3324;50.796;7.228;2024-02-26T00:15:56;8.30;99.90
6581;DHT22;3324;50.796;7.228;2024-02-26T00:18:21;8.20;99.90
6581;DHT22;3324;50.796;7.228;2024-02-26T00:20:47;8.10;99.90
6581;DHT22;3324;50.796;7.228;2024-02-26T00:23:14;8.00;99.90
6581;DHT22;3324;50.796;7.228;2024-02-26T00:25:40;8.00;99.90
6581;DHT22;3324;50.796;7.228;2024-02-26T00:28:07;8.00;99.90
6581;DHT22;3324;50.796;7.228;2024-02-26T00:30:33;8.00;99.90
6581;DHT22;3324;50.796;7.228;2024-02-26T00:32:58;8.00;99.90
6581;DHT22;3324;50.796;7.228;2024-02-26T00:35:24;8.10;99.90
6581;DHT22;3324;50.796;7.228;2024-02-26T00:37:49;8.00;99.90
6581;DHT22;3324;50.796;7.228;2024-02-26T00:40:15;8.10;99.90
6581;DHT22;3324;50.796;7.228;2024-02-26T00:42:40;8.10;99.90
6581;DHT22;3324;50.796;7.228;2024-02-26T00:45:10;8.00;99.90
6581;DHT22;3324;50.796;7.228;2024-02-26T00:47:36;8.10;99.90
6581;DHT22;3324;50.796;7.228;2024-02-26T00:50:01;8.10;99.90
6581;DHT22;3324;50.796;7.228;2024-02-26T00:52:27;8.00;99.90
6581;DHT22;3324;50.796;7.228;2024-02-26T00:54:53;8.10;99.90
6581;DHT22;3324;50.796;7.228;2024-02-26T00:57:18;8.00;99.90
6581;DHT22;3324;50.796;7.228;2024-02-26T00:59:43;8.00;99.90
6581;DHT22;3324;50.796;7.228;2024-02-26T01:02:09;8.10;99.90
6581;DHT22;3324;50.796;7.228;2024-02-26T01:04:34;8.00;99.90
6581;DHT22;3324;50.796;7.228;2024-02-26T01:07:00;8.00;99.90
6581;DHT22;3324;50.796;7.228;2024-02-26T01:09:25;8.00;99.90
6581;DHT22;3324;50.796;7.228;2024-02-26T01:11:51;8.00;99.90
6581;DHT22;3324;50.796;7.228;2024-02-26T01:14:16;7.90;99.90
6581;DHT22;3324;50.796;7.228;2024-02-26T01:16:42;7.90;99.90
6581;DHT22;3324;50.796;7.228;2024-02-26T01:19:07;7.90;99.90
6581;DHT22;3324;50.796;7.228;2024-02-26T01:21:33;7.90;99.90
6581;DHT22;3324;50.796;7.228;2024-02-26T01:23:58;7.90;99.90
6581;DHT22;3324;50.796;7.228;2024-02-26T01:26:24;7.90;99.90
6581;DHT22;3324;50.796;7.228;2024-02-26T01:28:49;7.90;99.90
6581;DHT22;3324;50.796;7.228;2024-02-26T01:31:15;7.90;99.90
6581;DHT22;3324;50.796;7.228;2024-02-26T01:33:40;7.80;99.90
6581;DHT22;3324;50.796;7.228;2024-02-26T01:36:06;7.80;99.90
6581;DHT22;3324;50.796;7.228;2024-02-26T01:38:31;7.70;99.90
6581;DHT22;3324;50.796;7.228;2024-02-26T01:40:57;7.80;99.90
6581;DHT22;3324;50.796;7.228;2024-02-26T01:43:22;7.80;99.90
6581;DHT22;3324;50.796;7.228;2024-02-26T01:45:48;7.80;99.90
6581;DHT22;3324;50.796;7.228;2024-02-26T01:48:13;7.70;99.90
6581;DHT22;3324;50.796;7.228;2024-02-26T01:50:39;7.70;99.90
6581;DHT22;3324;50.796;7.228;2024-02-26T01:53:05;7.70;99.90
6581;DHT22;3324;50.796;7.228;2024-02-26T01:55:31;7.70;99.90
6581;DHT22;3324;50.796;7.228;2024-02-26T01:57:57;7.70;99.90
6581;DHT22;3324;50.796;7.228;2024-02-26T02:00:23;7.70;99.90
6581;DHT22;3324;50.796;7.228;2024-02-26T02:02:49;7.70;99.90
6581;DHT22;3324;50.796;7.228;2024-02-26T02:05:16;7.70;99.90
6581;DHT22;3324;50.796;7.228;2024-02-26T02:07:44;7.70;99.90
6581;DHT22;3324;50.796;7.228;2024-02-26T02:10:10;7.70;99.90
6581;DHT22;3324;50.796;7.228;2024-02-26T02:12:35;7.70;99.90
6581;DHT22;3324;50.796;7.228;2024-02-26T02:15:04;7.70;99.90
6581;DHT22;3324;50.796;7.228;2024-02-26T02:17:30;7.70;99.90
6581;DHT22;3324;50.796;7.228;2024-02-26T02:19:55;7.70;99.90
6581;DHT22;3324;50.796;7.228;2024-02-26T02:22:21;7.70;99.90
6581;DHT22;3324;50.796;7.228;2024-02-26T02:24:46;7.70;99.90
6581;DHT22;3324;50.796;7.228;2024-02-26T02:27:12;7.70;99.90
6581;DHT22;3324;50.796;7.228;2024-02-26T02:29:37;7.70;99.90
6581;DHT22;3324;50.796;7.228;2024-02-26T02:32:03;7.70;99.90
6581;DHT22;3324;50.796;7.228;2024-02-26T02:34:28;7.70;99.90
6581;DHT22;3324;50.796;7.228;2024-02-26T02:36:54;7.70;99.90
6581;DHT22;3324;50.796;7.228;2024-02-26T02:39:20;7.70;99.90
6581;DHT22;3324;50.796;7.228;2024-02-26T02:41:46;7.70;99.90
6581;DHT22;3324;50.796;7.228;2024-02-26T02:44:11;7.70;99.90
6581;DHT22;3324;50.796;7.228;2024-02-26T02:46:37;7.70;99.90
6581;DHT22;3324;50.796;7.228;2024-02-26T02:49:02;7.70;99.90
6581;DHT22;3324;50.796;7.228;2024-02-26T02:51:28;7.70;99.90
6581;DHT22;3324;50.796;7.228;2024-02-26T02:53:53;7.60;99.90
6581;DHT22;3324;50.796;7.228;2024-02-26T02:56:19;7.60;99.90
6581;DHT22;3324;50.796;7.228;2024-02-26T02:58:44;7.60;99.90
6581;DHT22;3324;50.796;7.228;2024-02-26T03:01:10;7.60;99.90
6581;DHT22;3324;50.796;7.228;2024-02-26T03:03:35;7.60;99.90
6581;DHT22;3324;50.796;7.228;2024-02-26T03:06:02;7.60;99.90
6581;DHT22;3324;50.796;7.228;2024-02-26T03:08:28;7.60;99.90
6581;DHT22;3324;50.796;7.228;2024-02-26T03:10:53;7.60;99.90
6581;DHT22;3324;50.796;7.228;2024-02-26T03:13:19;7.60;99.90
6581;DHT22;3324;50.796;7.228;2024-02-26T03:15:44;7.60;99.90
6581;DHT22;3324;50.796;7.228;2024-02-26T03:18:10;7.60;99.90
6581;DHT22;3324;50.796;7.228;2024-02-26T03:20:35;7.60;99.90
6581;DHT22;3324;50.796;7.228;2024-02-26T03:23:02;7.60;99.90
6581;DHT22;3324;50.796;7.228;2024-02-26T03:25:28;7.50;99.90
6581;DHT22;3324;50.796;7.228;2024-02-26T03:27:53;7.50;99.90
6581;DHT22;3324;50.796;7.228;2024-02-26T03:30:19;7.50;99.90
6581;DHT22;3324;50.796;7.228;2024-02-26T03:32:44;7.50;99.90
6581;DHT22;3324;50.796;7.228;2024-02-26T03:35:10;7.50;99.90
6581;DHT22;3324;50.796;7.228;2024-02-26T03:37:35;7.50;99.90
6581;DHT22;3324;50.796;7.228;2024-02-26T03:40:01;7.50;99.90
6581;DHT22;3324;50.796;7.228;2024-02-26T03:42:26;7.50;99.90
6581;DHT22;3324;50.796;7.228;2024-02-26T03:44:52;7.50;99.90
6581;DHT22;3324;50.796;7.228;2024-02-26T03:47:17;7.50;99.90
6581;DHT22;3324;50.796;7.228;2024-02-26T03:49:43;7.50;99.90
6581;DHT22;3324;50.796;7.228;2024-02-26T03:52:08;7.50;99.90
6581;DHT22;3324;50.796;7.228;2024-02-26T03:54:34;7.50;99.90
6581;DHT22;3324;50.796;7.228;2024-02-26T03:56:59;7.50;99.90
6581;DHT22;3324;50.796;7.228;2024-02-26T03:59:25;7.60;99.90
6581;DHT22;3324;50.796;7.228;2024-02-26T04:01:51;7.50;99.90
6581;DHT22;3324;50.796;7.228;2024-02-26T04:04:17;7.40;99.90
6581;DHT22;3324;50.796;7.228;2024-02-26T04:06:45;7.40;99.90
6581;DHT22;3324;50.796;7.228;2024-02-26T04:09:12;7.50;99.90
6581;DHT22;3324;50.796;7.228;2024-02-26T04:11:37;7.40;99.90
6581;DHT22;3324;50.796;7.228;2024-02-26T04:14:03;7.40;99.90
6581;DHT22;3324;50.796;7.228;2024-02-26T04:16:29;7.40;99.90
6581;DHT22;3324;50.796;7.228;2024-02-26T04:18:54;7.30;99.90
6581;DHT22;3324;50.796;7.228;2024-02-26T04:21:20;7.30;99.90
6581;DHT22;3324;50.796;7.228;2024-02-26T04:23:45;7.30;99.90
6581;DHT22;3324;50.796;7.228;2024-02-26T04:26:11;7.30;99.90
6581;DHT22;3324;50.796;7.228;2024-02-26T04:28:36;7.40;99.90
6581;DHT22;3324;50.796;7.228;2024-02-26T04:31:02;7.30;99.90
6581;DHT22;3324;50.796;7.228;2024-02-26T04:33:27;7.30;99.90
6581;DHT22;3324;50.796;7.228;2024-02-26T04:35:53;7.40;99.90
6581;DHT22;3324;50.796;7.228;2024-02-26T04:38:18;7.40;99.90
6581;DHT22;3324;50.796;7.228;2024-02-26T04:40:44;7.30;99.90
6581;DHT22;3324;50.796;7.228;2024-02-26T04:43:10;7.30;99.90
6581;DHT22;3324;50.796;7.228;2024-02-26T04:45:35;7.40;99.90
6581;DHT22;3324;50.796;7.228;2024-02-26T04:48:01;7.30;99.90
6581;DHT22;3324;50.796;7.228;2024-02-26T04:50:26;7.30;99.90
6581;DHT22;3324;50.796;7.228;2024-02-26T04:52:51;7.30;99.90
6581;DHT22;3324;50.796;7.228;2024-02-26T04:55:17;7.30;99.90
6581;DHT22;3324;50.796;7.228;2024-02-26T04:57:42;7.40;99.90
6581;DHT22;3324;50.796;7.228;2024-02-26T05:00:08;7.40;99.90
6581;DHT22;3324;50.796;7.228;2024-02-26T05:02:35;7.40;99.90
6581;DHT22;3324;50.796;7.228;2024-02-26T05:05:04;7.30;99.90
6581;DHT22;3324;50.796;7.228;2024-02-26T05:07:29;7.40;99.90
6581;DHT22;3324;50.796;7.228;2024-02-26T05:09:55;7.40;99.90
6581;DHT22;3324;50.796;7.228;2024-02-26T05:12:21;7.40;99.90
6581;DHT22;3324;50.796;7.228;2024-02-26T05:14:46;7.30;99.90
6581;DHT22;3324;50.796;7.228;2024-02-26T05:17:12;7.30;99.90
6581;DHT22;3324;50.796;7.228;2024-02-26T05:19:37;7.30;99.90
6581;DHT22;3324;50.796;7.228;2024-02-26T05:22:03;7.30;99.90
6581;DHT22;3324;50.796;7.228;2024-02-26T05:24:28;7.20;99.90
6581;DHT22;3324;50.796;7.228;2024-02-26T05:26:54;7.20;99.90
6581;DHT22;3324;50.796;7.228;2024-02-26T05:29:20;7.20;99.90
6581;DHT22;3324;50.796;7.228;2024-02-26T05:31:46;7.20;99.90
6581;DHT22;3324;50.796;7.228;2024-02-26T05:34:11;7.10;99.90
6581;DHT22;3324;50.796;7.228;2024-02-26T05:36:37;7.10;99.90
6581;DHT22;3324;50.796;7.228;2024-02-26T05:39:02;7.20;99.90
6581;DHT22;3324;50.796;7.228;2024-02-26T05:41:29;7.10;99.90
6581;DHT22;3324;50.796;7.228;2024-02-26T05:43:54;7.20;99.90
6581;DHT22;3324;50.796;7.228;2024-02-26T05:46:20;7.10;99.90
6581;DHT22;3324;50.796;7.228;2024-02-26T05:48:47;7.10;99.90
6581;DHT22;3324;50.796;7.228;2024-02-26T05:51:12;7.10;99.90
6581;DHT22;3324;50.796;7.228;2024-02-26T05:53:38;7.10;99.90
6581;DHT22;3324;50.796;7.228;2024-02-26T05:56:03;7.10;99.90
6581;DHT22;3324;50.796;7.228;2024-02-26T05:58:29;7.10;99.90
6581;DHT22;3324;50.796;7.228;2024-02-26T06:00:54;7.20;99.90
6581;DHT22;3324;50.796;7.228;2024-02-26T06:03:20;7.20;99.90
6581;DHT22;3324;50.796;7.228;2024-02-26T06:05:45;7.10;99.90
6581;DHT22;3324;50.796;7.228;2024-02-26T06:08:11;7.20;99.90
6581;DHT22;3324;50.796;7.228;2024-02-26T06:10:36;7.20;99.90
6581;DHT22;3324;50.796;7.228;2024-02-26T06:13:02;7.10;99.90
6581;DHT22;3324;50.796;7.228;2024-02-26T06:15:27;7.20;99.90
6581;DHT22;3324;50.796;7.228;2024-02-26T06:17:53;7.10;99.90
6581;DHT22;3324;50.796;7.228;2024-02-26T06:20:19;7.10;99.90
6581;DHT22;3324;50.796;7.228;2024-02-26T06:22:45;7.10;99.90
6581;DHT22;3324;50.796;7.228;2024-02-26T06:25:11;7.10;99.90
6581;DHT22;3324;50.796;7.228;2024-02-26T06:27:36;7.10;99.90
6581;DHT22;3324;50.796;7.228;2024-02-26T06:30:02;7.10;99.90
6581;DHT22;3324;50.796;7.228;2024-02-26T06:32:28;7.00;99.90
6581;DHT22;3324;50.796;7.228;2024-02-26T06:34:54;7.00;99.90
6581;DHT22;3324;50.796;7.228;2024-02-26T06:37:20;7.10;99.90
6581;DHT22;3324;50.796;7.228;2024-02-26T06:39:45;7.10;99.90
6581;DHT22;3324;50.796;7.228;2024-02-26T06:42:11;7.10;99.90
6581;DHT22;3324;50.796;7.228;2024-02-26T06:44:36;7.00;99.90
6581;DHT22;3324;50.796;7.228;2024-02-26T06:47:02;7.30;99.90
6581;DHT22;3324;50.796;7.228;2024-02-26T06:49:27;7.60;99.90
6581;DHT22;3324;50.796;7.228;2024-02-26T06:51:53;7.50;99.90
6581;DHT22;3324;50.796;7.228;2024-02-26T06:54:19;7.50;99.90
6581;DHT22;3324;50.796;7.228;2024-02-26T06:56:44;7.30;99.90
6581;DHT22;3324;50.796;7.228;2024-02-26T06:59:10;7.30;99.90
6581;DHT22;3324;50.796;7.228;2024-02-26T07:01:35;7.30;99.90
6581;DHT22;3324;50.796;7.228;2024-02-26T07:04:01;7.20;99.90
6581;DHT22;3324;50.796;7.228;2024-02-26T07:06:27;7.20;99.90
6581;DHT22;3324;50.796;7.228;2024-02-26T07:08:52;7.20;99.90
6581;DHT22;3324;50.796;7.228;2024-02-26T07:11:17;7.10;99.90
6581;DHT22;3324;50.796;7.228;2024-02-26T07:13:45;7.10;99.90
6581;DHT22;3324;50.796;7.228;2024-02-26T07:16:10;7.10;99.90
6581;DHT22;3324;50.796;7.228;2024-02-26T07:18:36;7.00;99.90
6581;DHT22;3324;50.796;7.228;2024-02-26T07:21:02;7.00;99.90
6581;DHT22;3324;50.796;7.228;2024-02-26T07:23:27;7.00;99.90
6581;DHT22;3324;50.796;7.228;2024-02-26T07:25:53;7.10;99.90
6581;DHT22;3324;50.796;7.228;2024-02-26T07:28:18;7.10;99.90
6581;DHT22;3324;50.796;7.228;2024-02-26T07:30:44;7.00;99.90
6581;DHT22;3324;50.796;7.228;2024-02-26T07:33:10;7.00;99.90
6581;DHT22;3324;50.796;7.228;2024-02-26T07:35:35;7.10;99.90
6581;DHT22;3324;50.796;7.228;2024-02-26T07:38:02;7.10;99.90
6581;DHT22;3324;50.796;7.228;2024-02-26T07:40:27;7.00;99.90
6581;DHT22;3324;50.796;7.228;2024-02-26T07:42:52;7.00;99.90
6581;DHT22;3324;50.796;7.228;2024-02-26T07:45:18;7.00;99.90
6581;DHT22;3324;50.796;7.228;2024-02-26T07:47:46;7.00;99.90
6581;DHT22;3324;50.796;7.228;2024-02-26T07:50:12;7.00;99.90
6581;DHT22;3324;50.796;7.228;2024-02-26T07:52:37;7.00;99.90
6581;DHT22;3324;50.796;7.228;2024-02-26T07:55:03;7.00;99.90
6581;DHT22;3324;50.796;7.228;2024-02-26T07:57:29;7.00;99.90
6581;DHT22;3324;50.796;7.228;2024-02-26T07:59:54;7.00;99.90
6581;DHT22;3324;50.796;7.228;2024-02-26T08:02:20;7.10;99.90
6581;DHT22;3324;50.796;7.228;2024-02-26T08:04:47;7.10;99.90
6581;DHT22;3324;50.796;7.228;2024-02-26T08:07:12;7.00;99.90
6581;DHT22;3324;50.796;7.228;2024-02-26T08:09:38;7.00;99.90
6581;DHT22;3324;50.796;7.228;2024-02-26T08:12:03;7.00;99.90
6581;DHT22;3324;50.796;7.228;2024-02-26T08:14:29;7.10;99.90
6581;DHT22;3324;50.796;7.228;2024-02-26T08:16:54;7.10;99.90
6581;DHT22;3324;50.796;7.228;2024-02-26T08:19:20;7.10;99.90
6581;DHT22;3324;50.796;7.228;2024-02-26T08:21:46;7.00;99.90
6581;DHT22;3324;50.796;7.228;2024-02-26T08:24:11;7.00;99.90
6581;DHT22;3324;50.796;7.228;2024-02-26T08:26:37;7.10;99.90
6581;DHT22;3324;50.796;7.228;2024-02-26T08:29:04;7.10;99.90
6581;DHT22;3324;50.796;7.228;2024-02-26T08:31:30;7.10;99.90
6581;DHT22;3324;50.796;7.228;2024-02-26T08:33:55;7.10;99.90
6581;DHT22;3324;50.796;7.228;2024-02-26T08:36:21;7.00;99.90
6581;DHT22;3324;50.796;7.228;2024-02-26T08:38:46;7.10;99.90
6581;DHT22;3324;50.796;7.228;2024-02-26T08:41:12;7.10;99.90
6581;DHT22;3324;50.796;7.228;2024-02-26T08:43:38;7.10;99.90
6581;DHT22;3324;50.796;7.228;2024-02-26T08:46:03;7.00;99.90
6581;DHT22;3324;50.796;7.228;2024-02-26T08:48:29;7.00;99.90
6581;DHT22;3324;50.796;7.228;2024-02-26T08:50:54;7.10;99.90
6581;DHT22;3324;50.796;7.228;2024-02-26T08:53:20;7.00;99.90
6581;DHT22;3324;50.796;7.228;2024-02-26T08:55:46;7.00;99.90
6581;DHT22;3324;50.796;7.228;2024-02-26T08:58:11;7.00;99.90
6581;DHT22;3324;50.796;7.228;2024-02-26T09:00:37;7.00;99.90
6581;DHT22;3324;50.796;7.228;2024-02-26T09:03:02;7.00;99.90
6581;DHT22;3324;50.796;7.228;2024-02-26T09:05:28;7.00;99.90
6581;DHT22;3324;50.796;7.228;2024-02-26T09:07:53;7.00;99.90
6581;DHT22;3324;50.796;7.228;2024-02-26T09:10:19;7.00;99.90
6581;DHT22;3324;50.796;7.228;2024-02-26T09:12:45;7.00;99.90
6581;DHT22;3324;50.796;7.228;2024-02-26T09:15:10;7.00;99.90
6581;DHT22;3324;50.796;7.228;2024-02-26T09:17:36;7.00;99.90
6581;DHT22;3324;50.796;7.228;2024-02-26T09:20:02;7.00;99.90
6581;DHT22;3324;50.796;7.228;2024-02-26T09:22:28;7.00;99.90
6581;DHT22;3324;50.796;7.228;2024-02-26T09:24:53;7.00;99.90
6581;DHT22;3324;50.796;7.228;2024-02-26T09:27:19;6.90;99.90
6581;DHT22;3324;50.796;7.228;2024-02-26T09:29:44;6.90;99.90
6581;DHT22;3324;50.796;7.228;2024-02-26T09:32:10;7.00;99.90
6581;DHT22;3324;50.796;7.228;2024-02-26T09:34:35;7.00;99.90
6581;DHT22;3324;50.796;7.228;2024-02-26T09:37:02;7.00;99.90
6581;DHT22;3324;50.796;7.228;2024-02-26T09:39:27;7.00;99.90
6581;DHT22;3324;50.796;7.228;2024-02-26T09:41:53;7.00;99.90
6581;DHT22;3324;50.796;7.228;2024-02-26T09:44:19;7.00;99.90
6581;DHT22;3324;50.796;7.228;2024-02-26T09:46:48;7.10;99.90
6581;DHT22;3324;50.796;7.228;2024-02-26T09:49:18;7.00;99.90
6581;DHT22;3324;50.796;7.228;2024-02-26T09:51:45;7.00;99.90
6581;DHT22;3324;50.796;7.228;2024-02-26T09:54:10;7.00;99.90
6581;DHT22;3324;50.796;7.228;2024-02-26T09:56:38;7.10;99.90
6581;DHT22;3324;50.796;7.228;2024-02-26T09:59:05;7.10;99.90
6581;DHT22;3324;50.796;7.228;2024-02-26T10:01:31;7.10;99.90
6581;DHT22;3324;50.796;7.228;2024-02-26T10:03:59;7.10;99.90
6581;DHT22;3324;50.796;7.228;2024-02-26T10:06:28;7.20;99.90
6581;DHT22;3324;50.796;7.228;2024-02-26T10:08:54;7.20;99.90
6581;DHT22;3324;50.796;7.228;2024-02-26T10:11:20;7.30;99.90
6581;DHT22;3324;50.796;7.228;2024-02-26T10:13:47;7.20;99.90
6581;DHT22;3324;50.796;7.228;2024-02-26T10:16:12;7.20;99.90
6581;DHT22;3324;50.796;7.228;2024-02-26T10:18:51;7.30;99.90
6581;DHT22;3324;50.796;7.228;2024-02-26T10:21:17;7.30;99.90
6581;DHT22;3324;50.796;7.228;2024-02-26T10:23:45;7.30;99.90
6581;DHT22;3324;50.796;7.228;2024-02-26T10:26:12;7.30;99.90
6581;DHT22;3324;50.796;7.228;2024-02-26T10:28:41;7.40;99.90
6581;DHT22;3324;50.796;7.228;2024-02-26T10:31:08;7.40;99.90
6581;DHT22;3324;50.796;7.228;2024-02-26T10:33:33;7.40;99.90
6581;DHT22;3324;50.796;7.228;2024-02-26T10:36:02;7.50;99.90
6581;DHT22;3324;50.796;7.228;2024-02-26T10:38:27;7.50;99.90
6581;DHT22;3324;50.796;7.228;2024-02-26T10:40:53;7.60;99.90
6581;DHT22;3324;50.796;7.228;2024-02-26T10:43:19;7.60;99.90
6581;DHT22;3324;50.796;7.228;2024-02-26T10:45:44;7.70;99.90
6581;DHT22;3324;50.796;7.228;2024-02-26T10:48:11;7.70;99.90
6581;DHT22;3324;50.796;7.228;2024-02-26T10:50:37;7.70;99.90
6581;DHT22;3324;50.796;7.228;2024-02-26T10:53:03;7.70;99.90
6581;DHT22;3324;50.796;7.228;2024-02-26T10:55:30;7.80;99.90
6581;DHT22;3324;50.796;7.228;2024-02-26T10:57:58;7.70;99.90
6581;DHT22;3324;50.796;7.228;2024-02-26T11:00:24;7.80;99.90
6581;DHT22;3324;50.796;7.228;2024-02-26T11:02:50;7.80;99.90
6581;DHT22;3324;50.796;7.228;2024-02-26T11:05:16;7.80;99.90
6581;DHT22;3324;50.796;7.228;2024-02-26T11:07:42;7.90;99.90
6581;DHT22;3324;50.796;7.228;2024-02-26T11:10:08;7.90;99.90
6581;DHT22;3324;50.796;7.228;2024-02-26T11:12:34;7.80;99.90
6581;DHT22;3324;50.796;7.228;2024-02-26T11:15:03;7.90;99.90
6581;DHT22;3324;50.796;7.228;2024-02-26T11:17:29;7.90;99.90
6581;DHT22;3324;50.796;7.228;2024-02-26T11:19:58;7.90;99.90
6581;DHT22;3324;50.796;7.228;2024-02-26T11:22:26;7.90;99.90
6581;DHT22;3324;50.796;7.228;2024-02-26T11:24:52;7.90;99.90
6581;DHT22;3324;50.796;7.228;2024-02-26T11:27:19;7.90;99.90
6581;DHT22;3324;50.796;7.228;2024-02-26T11:29:47;7.90;99.90
6581;DHT22;3324;50.796;7.228;2024-02-26T11:32:14;8.00;99.90
6581;DHT22;3324;50.796;7.228;2024-02-26T11:34:40;8.00;99.90
6581;DHT22;3324;50.796;7.228;2024-02-26T11:37:10;8.00;99.90
6581;DHT22;3324;50.796;7.228;2024-02-26T11:39:35;8.10;99.90
6581;DHT22;3324;50.796;7.228;2024-02-26T11:42:05;8.10;99.90
6581;DHT22;3324;50.796;7.228;2024-02-26T11:44:30;8.10;99.90
6581;DHT22;3324;50.796;7.228;2024-02-26T11:46:56;8.10;99.90
6581;DHT22;3324;50.796;7.228;2024-02-26T11:51:56;8.10;99.90
6581;DHT22;3324;50.796;7.228;2024-02-26T11:57:03;8.20;99.90
6581;DHT22;3324;50.796;7.228;2024-02-26T11:59:38;8.20;99.90
6581;DHT22;3324;50.796;7.228;2024-02-26T12:02:03;8.20;99.90
6581;DHT22;3324;50.796;7.228;2024-02-26T12:04:29;8.30;99.90
6581;DHT22;3324;50.796;7.228;2024-02-26T12:06:56;8.30;99.90
6581;DHT22;3324;50.796;7.228;2024-02-26T12:12:03;8.40;99.90
6581;DHT22;3324;50.796;7.228;2024-02-26T12:14:29;8.40;99.90
6581;DHT22;3324;50.796;7.228;2024-02-26T12:16:55;8.40;99.90
6581;DHT22;3324;50.796;7.228;2024-02-26T12:19:21;8.40;99.90
6581;DHT22;3324;50.796;7.228;2024-02-26T12:21:48;8.40;99.90
6581;DHT22;3324;50.796;7.228;2024-02-26T12:24:16;8.40;99.90
6581;DHT22;3324;50.796;7.228;2024-02-26T12:26:43;8.50;99.90
6581;DHT22;3324;50.796;7.228;2024-02-26T12:29:09;8.50;99.90
6581;DHT22;3324;50.796;7.228;2024-02-26T12:31:35;8.50;99.90
6581;DHT22;3324;50.796;7.228;2024-02-26T12:34:02;8.50;99.90
6581;DHT22;3324;50.796;7.228;2024-02-26T12:36:28;8.50;99.90
6581;DHT22;3324;50.796;7.228;2024-02-26T12:38:54;8.50;99.90
6581;DHT22;3324;50.796;7.228;2024-02-26T12:41:20;8.50;99.90
6581;DHT22;3324;50.796;7.228;2024-02-26T12:43:46;8.50;99.90
6581;DHT22;3324;50.796;7.228;2024-02-26T12:46:11;8.50;99.90
6581;DHT22;3324;50.796;7.228;2024-02-26T12:48:38;8.50;99.90
6581;DHT22;3324;50.796;7.228;2024-02-26T12:51:04;8.50;99.90
6581;DHT22;3324;50.796;7.228;2024-02-26T12:53:31;8.50;99.90
6581;DHT22;3324;50.796;7.228;2024-02-26T12:55:56;8.50;99.90
6581;DHT22;3324;50.796;7.228;2024-02-26T12:58:22;8.50;99.90
6581;DHT22;3324;50.796;7.228;2024-02-26T13:00:53;8.50;99.90
6581;DHT22;3324;50.796;7.228;2024-02-26T13:03:19;8.40;99.90
6581;DHT22;3324;50.796;7.228;2024-02-26T13:05:45;8.40;99.90
6581;DHT22;3324;50.796;7.228;2024-02-26T13:08:17;8.40;99.90
6581;DHT22;3324;50.796;7.228;2024-02-26T13:10:42;8.40;99.90
6581;DHT22;3324;50.796;7.228;2024-02-26T13:13:08;8.40;99.90
6581;DHT22;3324;50.796;7.228;2024-02-26T13:15:34;8.50;99.90
6581;DHT22;3324;50.796;7.228;2024-02-26T13:17:59;8.50;99.90
6581;DHT22;3324;50.796;7.228;2024-02-26T13:20:34;8.50;99.90
6581;DHT22;3324;50.796;7.228;2024-02-26T13:23:04;8.50;99.90
6581;DHT22;3324;50.796;7.228;2024-02-26T13:25:30;8.40;99.90
6581;DHT22;3324;50.796;7.228;2024-02-26T13:28:06;8.50;99.90
6581;DHT22;3324;50.796;7.228;2024-02-26T13:30:32;8.50;99.90
6581;DHT22;3324;50.796;7.228;2024-02-26T13:33:06;8.50;99.90
6581;DHT22;3324;50.796;7.228;2024-02-26T13:35:32;8.50;99.90
6581;DHT22;3324;50.796;7.228;2024-02-26T13:38:00;8.50;99.90
6581;DHT22;3324;50.796;7.228;2024-02-26T13:40:26;8.40;99.90
6581;DHT22;3324;50.796;7.228;2024-02-26T13:42:51;8.50;99.90
6581;DHT22;3324;50.796;7.228;2024-02-26T13:45:18;8.50;99.90
6581;DHT22;3324;50.796;7.228;2024-02-26T13:47:43;8.50;99.90
6581;DHT22;3324;50.796;7.228;2024-02-26T13:50:09;8.40;99.90
6581;DHT22;3324;50.796;7.228;2024-02-26T13:52:35;8.40;99.90
6581;DHT22;3324;50.796;7.228;2024-02-26T13:55:00;8.50;99.90
6581;DHT22;3324;50.796;7.228;2024-02-26T13:57:27;8.50;99.90
6581;DHT22;3324;50.796;7.228;2024-02-26T13:59:54;8.50;99.90
6581;DHT22;3324;50.796;7.228;2024-02-26T14:02:19;8.50;99.90
6581;DHT22;3324;50.796;7.228;2024-02-26T14:04:45;8.60;99.90
6581;DHT22;3324;50.796;7.228;2024-02-26T14:07:11;8.60;99.90
6581;DHT22;3324;50.796;7.228;2024-02-26T14:09:37;8.60;99.90
6581;DHT22;3324;50.796;7.228;2024-02-26T14:12:02;8.60;99.90
6581;DHT22;3324;50.796;7.228;2024-02-26T14:14:28;8.60;99.90
6581;DHT22;3324;50.796;7.228;2024-02-26T14:16:54;8.60;99.90
6581;DHT22;3324;50.796;7.228;2024-02-26T14:19:19;8.60;99.90
6581;DHT22;3324;50.796;7.228;2024-02-26T14:21:45;8.60;99.90
6581;DHT22;3324;50.796;7.228;2024-02-26T14:24:10;8.60;99.90
6581;DHT22;3324;50.796;7.228;2024-02-26T14:26:36;8.60;99.90
6581;DHT22;3324;50.796;7.228;2024-02-26T14:29:01;8.70;99.90
6581;DHT22;3324;50.796;7.228;2024-02-26T14:31:27;8.60;99.90
6581;DHT22;3324;50.796;7.228;2024-02-26T14:33:52;8.60;99.90
6581;DHT22;3324;50.796;7.228;2024-02-26T14:36:19;8.60;99.90
6581;DHT22;3324;50.796;7.228;2024-02-26T14:38:46;8.60;99.90
6581;DHT22;3324;50.796;7.228;2024-02-26T14:41:11;8.60;99.90
6581;DHT22;3324;50.796;7.228;2024-02-26T14:43:37;8.60;99.90
6581;DHT22;3324;50.796;7.228;2024-02-26T14:46:02;8.50;99.90
6581;DHT22;3324;50.796;7.228;2024-02-26T14:48:28;8.50;99.90
6581;DHT22;3324;50.796;7.228;2024-02-26T14:50:55;8.50;99.90
6581;DHT22;3324;50.796;7.228;2024-02-26T14:53:20;8.50;99.90
6581;DHT22;3324;50.796;7.228;2024-02-26T14:55:46;8.50;99.90
6581;DHT22;3324;50.796;7.228;2024-02-26T14:58:11;8.60;99.90
6581;DHT22;3324;50.796;7.228;2024-02-26T15:00:38;8.50;99.90
6581;DHT22;3324;50.796;7.228;2024-02-26T15:03:04;8.50;99.90
6581;DHT22;3324;50.796;7.228;2024-02-26T15:05:29;8.50;99.90
6581;DHT22;3324;50.796;7.228;2024-02-26T15:07:55;8.50;99.90
6581;DHT22;3324;50.796;7.228;2024-02-26T15:10:20;8.50;99.90
6581;DHT22;3324;50.796;7.228;2024-02-26T15:12:46;8.50;99.90
6581;DHT22;3324;50.796;7.228;2024-02-26T15:15:12;8.50;99.90
6581;DHT22;3324;50.796;7.228;2024-02-26T15:17:37;8.50;99.90
6581;DHT22;3324;50.796;7.228;2024-02-26T15:20:03;8.50;99.90
6581;DHT22;3324;50.796;7.228;2024-02-26T15:22:30;8.50;99.90
6581;DHT22;3324;50.796;7.228;2024-02-26T15:24:56;8.50;99.90
6581;DHT22;3324;50.796;7.228;2024-02-26T15:27:21;8.50;99.90
6581;DHT22;3324;50.796;7.228;2024-02-26T15:29:47;8.70;99.90
6581;DHT22;3324;50.796;7.228;2024-02-26T15:32:12;8.60;99.90
6581;DHT22;3324;50.796;7.228;2024-02-26T15:34:39;8.60;99.90
6581;DHT22;3324;50.796;7.228;2024-02-26T15:37:04;8.60;99.90
6581;DHT22;3324;50.796;7.228;2024-02-26T15:39:30;8.60;99.90
6581;DHT22;3324;50.796;7.228;2024-02-26T15:41:55;8.60;99.90
6581;DHT22;3324;50.796;7.228;2024-02-26T15:44:22;8.60;99.90
6581;DHT22;3324;50.796;7.228;2024-02-26T15:46:48;8.70;99.90
6581;DHT22;3324;50.796;7.228;2024-02-26T15:49:13;8.70;99.90
6581;DHT22;3324;50.796;7.228;2024-02-26T15:51:40;8.80;99.90
6581;DHT22;3324;50.796;7.228;2024-02-26T15:54:06;8.70;99.90
6581;DHT22;3324;50.796;7.228;2024-02-26T15:56:31;8.70;99.90
6581;DHT22;3324;50.796;7.228;2024-02-26T15:58:57;8.70;99.90
6581;DHT22;3324;50.796;7.228;2024-02-26T16:01:23;8.80;99.90
6581;DHT22;3324;50.796;7.228;2024-02-26T16:03:48;8.70;99.90
6581;DHT22;3324;50.796;7.228;2024-02-26T16:06:36;8.70;99.90
6581;DHT22;3324;50.796;7.228;2024-02-26T16:09:00;8.70;99.90
6581;DHT22;3324;50.796;7.228;2024-02-26T16:11:26;8.70;99.90
6581;DHT22;3324;50.796;7.228;2024-02-26T16:13:54;8.70;99.90
6581;DHT22;3324;50.796;7.228;2024-02-26T16:16:22;8.70;99.90